Hardwick, Vermont
Current Conditions -  °F | °C
As of 2:54 AM on Friday 31 Oct 2014 (Local Time) from KMVL Reporting Station
Overcast Overcast  
Wind Chill: 39°   Ceiling: 4900
Heat Index: 39°   Visibility: 10mi
Dew Point: 32°   Wind: 0mph
Humidity: 76%   Direction: NA
Pressure: 30.02"   Gusts: NA
Location:  44.5°N, 72.37°W
Report Text: KMVL 310654Z AUTO 00000KT 10SM OVC049 04/00 A3002 RMK AO2 SLP172 T00390000
Loading
Personal Weather Stations






























Interactive Weather Map New forecast layout! Learn more

10-Day Weather Forecast

Advertisements
Track Severe Weather on mobile